createdAt,value
2022-08-01T00:03:15.313Z,1.48
2022-08-01T00:08:42.888Z,1.29
2022-08-01T00:14:08.549Z,1.48
2022-08-01T00:19:36.875Z,1.42
2022-08-01T00:25:00.727Z,1.33
2022-08-01T00:30:24.915Z,1.42
2022-08-01T00:35:50.664Z,1.47
2022-08-01T00:41:18.473Z,1.16
2022-08-01T00:46:40.293Z,0.93
2022-08-01T00:52:06.181Z,1.15
2022-08-01T00:58:02.491Z,1.10
2022-08-01T01:02:58.170Z,1.53
2022-08-01T01:08:25.807Z,0.92
2022-08-01T01:13:50.403Z,1.09
2022-08-01T01:19:14.187Z,0.80
2022-08-01T01:24:39.214Z,1.11
2022-08-01T01:30:01.800Z,1.13
2022-08-01T01:35:29.199Z,1.00
2022-08-01T01:40:54.826Z,1.33
2022-08-01T01:46:20.687Z,1.30
2022-08-01T01:51:49.492Z,1.41
2022-08-01T01:57:15.241Z,1.46
2022-08-01T02:02:37.740Z,1.37
2022-08-01T02:08:03.900Z,1.08
2022-08-01T02:13:34.285Z,0.92
2022-08-01T02:18:59.153Z,0.84
2022-08-01T02:24:30.530Z,0.89
2022-08-01T02:29:52.689Z,0.75
2022-08-01T02:35:20.274Z,0.81
2022-08-01T02:40:47.136Z,0.72
2022-08-01T02:46:11.679Z,0.76
2022-08-01T02:51:35.465Z,0.65
2022-08-01T02:56:57.209Z,0.83
2022-08-01T03:02:18.873Z,0.68
2022-08-01T03:07:40.606Z,1.35
2022-08-01T03:13:02.122Z,2.10
2022-08-01T03:18:28.816Z,1.80
2022-08-01T03:23:55.930Z,1.26
2022-08-01T03:29:22.431Z,1.38
2022-08-01T03:34:49.096Z,1.40
2022-08-01T03:40:16.860Z,1.25
2022-08-01T03:45:43.430Z,1.34
2022-08-01T03:51:08.566Z,1.10
2022-08-01T03:56:35.547Z,0.85
2022-08-01T04:02:02.883Z,1.24
2022-08-01T04:07:30.023Z,1.25
2022-08-01T04:12:57.343Z,1.16
2022-08-01T04:18:25.066Z,1.12
2022-08-01T04:23:46.619Z,1.19
2022-08-01T04:29:08.126Z,0.95
2022-08-01T04:34:29.466Z,1.07
2022-08-01T04:39:51.359Z,1.34
2022-08-01T04:45:12.284Z,1.10
2022-08-01T04:50:34.215Z,0.90
2022-08-01T04:55:56.109Z,0.96
2022-08-01T05:01:18.311Z,0.93
2022-08-01T05:06:41.677Z,0.79
2022-08-01T05:12:05.370Z,0.87
2022-08-01T05:17:27.529Z,0.83
2022-08-01T05:22:49.583Z,0.88
2022-08-01T05:28:11.393Z,0.93
2022-08-01T05:33:38.998Z,0.83
2022-08-01T05:39:06.446Z,0.85
2022-08-01T05:44:32.654Z,0.72
2022-08-01T05:49:59.792Z,0.80
2022-08-01T05:55:25.711Z,0.81
2022-08-01T06:00:52.298Z,0.66
2022-08-01T06:06:15.716Z,0.78
2022-08-01T06:11:41.736Z,0.72
2022-08-01T06:17:03.519Z,0.58
2022-08-01T06:22:25.722Z,0.57
2022-08-01T06:27:50.438Z,0.63
2022-08-01T06:33:12.480Z,0.68
2022-08-01T06:38:34.019Z,0.85
2022-08-01T06:43:56.241Z,0.91
2022-08-01T06:49:18.953Z,0.49
2022-08-01T06:54:41.020Z,0.76
2022-08-01T07:00:03.262Z,0.59
2022-08-01T07:05:28.744Z,0.84
2022-08-01T07:11:00.953Z,0.76
2022-08-01T07:16:38.698Z,0.73
2022-08-01T07:22:00.542Z,0.82
2022-08-01T07:27:24.394Z,0.75
2022-08-01T07:32:43.508Z,0.87
2022-08-01T07:38:07.777Z,0.95
2022-08-01T07:43:26.921Z,0.98
2022-08-01T07:48:48.709Z,0.80
2022-08-01T07:54:10.282Z,1.01
2022-08-01T07:59:32.398Z,0.77
2022-08-01T08:04:54.281Z,0.92
2022-08-01T08:10:16.139Z,1.12
2022-08-01T08:15:40.191Z,0.71
2022-08-01T08:21:08.590Z,0.78
2022-08-01T08:26:35.131Z,0.74
2022-08-01T08:32:06.541Z,0.96
2022-08-01T08:37:37.979Z,0.96
2022-08-01T08:42:56.984Z,0.92
2022-08-01T08:48:27.661Z,0.77
2022-08-01T08:53:50.247Z,0.79
2022-08-01T08:59:17.894Z,0.91
2022-08-01T09:04:47.138Z,1.03
2022-08-01T09:10:14.413Z,0.94
2022-08-01T09:15:38.924Z,0.72
2022-08-01T09:21:06.464Z,0.69
2022-08-01T09:26:30.070Z,0.75
2022-08-01T09:31:58.276Z,0.90
2022-08-01T09:37:24.321Z,0.99
2022-08-01T09:42:52.295Z,0.85
2022-08-01T09:48:31.768Z,0.82
2022-08-01T09:53:59.456Z,1.12
2022-08-01T09:59:36.110Z,0.98
2022-08-01T10:05:03.241Z,0.79
2022-08-01T10:10:23.582Z,0.85
2022-08-01T10:15:50.377Z,0.95
2022-08-01T10:21:56.470Z,0.74
2022-08-01T10:27:38.088Z,0.97
2022-08-01T10:32:50.490Z,0.76
2022-08-01T10:38:13.789Z,0.75
2022-08-01T10:43:33.058Z,0.71
2022-08-01T10:48:54.503Z,0.72
2022-08-01T10:54:16.765Z,0.97
2022-08-01T10:59:49.646Z,0.78
2022-08-01T11:05:08.219Z,1.15
2022-08-01T11:10:30.881Z,0.51
2022-08-01T11:15:54.977Z,0.66
2022-08-01T11:21:58.745Z,0.72
2022-08-01T11:27:09.591Z,0.84
2022-08-01T11:32:52.738Z,0.61
2022-08-01T11:38:05.710Z,0.86
2022-08-01T11:43:46.702Z,0.90
2022-08-01T11:49:20.473Z,0.77
2022-08-01T11:54:59.046Z,0.50
2022-08-01T12:00:29.403Z,0.62
2022-08-01T12:05:55.828Z,0.75
2022-08-01T12:11:22.404Z,0.69
2022-08-01T12:16:50.355Z,0.39
2022-08-01T12:22:18.439Z,0.85
2022-08-01T12:27:40.639Z,0.62
2022-08-01T12:33:09.138Z,0.77
2022-08-01T12:38:31.368Z,0.67
2022-08-01T12:43:56.639Z,0.76
2022-08-01T12:49:22.341Z,0.64
2022-08-01T12:54:50.141Z,0.43
2022-08-01T13:00:27.258Z,0.52
2022-08-01T13:05:54.398Z,0.75
2022-08-01T13:11:16.963Z,0.75
2022-08-01T13:16:56.373Z,0.69
2022-08-01T13:22:11.540Z,0.58
2022-08-01T13:27:38.734Z,0.72
2022-08-01T13:33:05.361Z,0.69
2022-08-01T13:38:33.190Z,0.74
2022-08-01T13:44:01.405Z,0.70
2022-08-01T13:49:35.555Z,0.65
2022-08-01T13:54:51.053Z,0.61
2022-08-01T14:00:19.735Z,0.60
2022-08-01T14:05:47.280Z,0.59
2022-08-01T14:11:11.822Z,0.61
2022-08-01T14:16:37.724Z,0.75
2022-08-01T14:22:03.210Z,0.59
2022-08-01T14:27:30.429Z,0.76
2022-08-01T14:32:52.775Z,0.74
2022-08-01T14:38:29.076Z,0.73
2022-08-01T14:43:42.915Z,0.73
2022-08-01T14:49:12.089Z,1.00
2022-08-01T14:54:40.511Z,0.62
2022-08-01T15:00:08.831Z,0.39
2022-08-01T15:05:39.224Z,0.71
2022-08-01T15:11:08.635Z,0.54
2022-08-01T15:16:34.191Z,0.42
2022-08-01T15:22:00.092Z,0.49
2022-08-01T15:27:24.798Z,0.52
2022-08-01T15:32:51.249Z,0.62
2022-08-01T15:38:12.293Z,0.66
2022-08-01T15:43:33.924Z,0.57
2022-08-01T15:49:00.559Z,0.60
2022-08-01T15:54:28.167Z,0.81
2022-08-01T15:59:51.504Z,0.61
2022-08-01T16:05:20.439Z,0.86
2022-08-01T16:10:46.781Z,0.72
2022-08-01T16:16:12.545Z,0.70
2022-08-01T16:21:43.778Z,0.72
2022-08-01T16:27:07.831Z,0.68
2022-08-01T16:32:42.717Z,0.80
2022-08-01T16:37:59.878Z,0.47
2022-08-01T16:43:27.041Z,0.71
2022-08-01T16:48:54.391Z,0.70
2022-08-01T16:54:24.901Z,0.87
2022-08-01T16:59:47.551Z,0.72
2022-08-01T17:05:12.187Z,0.61
2022-08-01T17:10:31.108Z,0.62
2022-08-01T17:15:56.989Z,0.69
2022-08-01T17:21:23.743Z,0.83
2022-08-01T17:26:47.896Z,0.91
2022-08-01T17:32:14.385Z,0.67
2022-08-01T17:37:40.373Z,0.62
2022-08-01T17:43:09.048Z,0.86
2022-08-01T17:48:34.189Z,0.87
2022-08-01T17:54:01.853Z,1.07
2022-08-01T17:59:29.013Z,0.66
2022-08-01T18:04:51.055Z,0.81
2022-08-01T18:10:13.023Z,0.61
2022-08-01T18:15:40.757Z,0.59
2022-08-01T18:21:05.988Z,0.61
2022-08-01T18:26:31.938Z,0.71
2022-08-01T18:31:57.872Z,0.88
2022-08-01T18:37:22.492Z,0.91
2022-08-01T18:42:48.972Z,1.15
2022-08-01T18:48:13.971Z,0.84
2022-08-01T18:53:42.108Z,0.76
2022-08-01T18:59:07.728Z,1.03
2022-08-01T19:04:35.433Z,0.87
2022-08-01T19:10:03.384Z,4.32
2022-08-01T19:15:30.897Z,2.47
2022-08-01T19:20:56.664Z,2.12
2022-08-01T19:26:22.494Z,1.15
2022-08-01T19:31:49.748Z,1.29
2022-08-01T19:37:16.057Z,1.69
2022-08-01T19:42:40.046Z,1.29
2022-08-01T19:48:07.804Z,1.39
2022-08-01T19:53:36.650Z,1.22
2022-08-01T19:59:01.936Z,1.19
2022-08-01T20:04:29.436Z,1.29
2022-08-01T20:09:55.427Z,1.16
2022-08-01T20:15:19.532Z,1.32
2022-08-01T20:20:46.831Z,1.50
2022-08-01T20:26:13.168Z,1.70
2022-08-01T20:31:38.493Z,1.47
2022-08-01T20:37:02.892Z,1.47
2022-08-01T20:42:27.609Z,1.38
2022-08-01T20:47:53.387Z,1.34
2022-08-01T20:53:21.841Z,1.85
2022-08-01T20:58:43.784Z,1.86
2022-08-01T21:04:26.854Z,1.73
2022-08-01T21:10:00.002Z,1.98
2022-08-01T21:15:27.180Z,1.88
2022-08-01T21:20:54.429Z,1.75
2022-08-01T21:26:21.105Z,1.91
2022-08-01T21:31:49.019Z,2.01
2022-08-01T21:37:15.883Z,2.28
2022-08-01T21:42:43.320Z,2.03
2022-08-01T21:48:09.671Z,2.20
2022-08-01T21:53:39.120Z,2.32
2022-08-01T21:59:01.171Z,1.90
2022-08-01T22:04:26.291Z,1.90
2022-08-01T22:09:52.122Z,2.04
2022-08-01T22:15:13.867Z,2.03
2022-08-01T22:20:38.173Z,1.98
2022-08-01T22:25:59.723Z,2.20
2022-08-01T22:31:26.488Z,1.96
2022-08-01T22:36:53.235Z,1.92
2022-08-01T22:42:21.031Z,2.12
2022-08-01T22:47:43.286Z,1.99
2022-08-01T22:53:09.299Z,2.12
2022-08-01T22:58:37.059Z,2.07
2022-08-01T23:04:04.075Z,2.04
2022-08-01T23:09:52.990Z,2.19
2022-08-01T23:15:00.217Z,2.34
2022-08-01T23:20:25.323Z,2.24
2022-08-01T23:25:48.256Z,2.41
2022-08-01T23:31:15.178Z,2.29
2022-08-01T23:36:42.958Z,2.44
2022-08-01T23:42:11.054Z,2.81
2022-08-01T23:47:35.383Z,2.26
2022-08-01T23:52:57.236Z,2.54
2022-08-01T23:58:24.163Z,2.58
